Time;durP1;ratioP1;P1;durP2;ratioP2;P2;SDS_P1;SDS_P2;PMS_P1;PMS_P2;Temp;Humidity;BMP_temperature;BMP_pressure;BME280_temperature;BME280_humidity;BME280_pressure;Samples;Min_cycle;Max_cycle;Signal;HPM_P1;HPM_P2
2022/01/25 00:28:38;;;;;;;58.35;47.67;;;4.80;99.90;;;;;;4991699;28;20054;-72
2022/01/25 00:31:16;;;;;;;56.85;45.88;;;4.80;99.90;;;;;;5004605;28;20042;-72
2022/01/25 00:33:53;;;;;;;58.50;46.83;;;4.70;99.90;;;;;;5002618;28;20050;-71
2022/01/25 00:36:26;;;;;;;59.58;47.50;;;4.70;99.90;;;;;;4996579;28;20137;-72
2022/01/25 00:38:53;;;;;;;63.88;50.13;;;4.70;99.90;;;;;;5004308;28;20042;-72
2022/01/25 00:41:20;;;;;;;64.88;51.38;;;4.70;99.90;;;;;;5004241;28;20076;-71
2022/01/25 00:43:47;;;;;;;64.80;50.10;;;4.70;99.90;;;;;;5001378;28;20054;-72
2022/01/25 00:46:14;;;;;;;65.65;51.20;;;4.70;99.90;;;;;;5005152;28;20488;-72
2022/01/25 00:48:45;;;;;;;;;;;4.70;99.90;;;;;;5007145;28;20125;-72
2022/01/25 00:56:25;;;;;;;65.95;52.30;;;4.70;99.90;;;;;;5003894;28;20181;-72
2022/01/25 00:58:51;;;;;;;68.72;53.30;;;4.70;99.90;;;;;;5001382;28;20441;-72
2022/01/25 01:01:18;;;;;;;67.75;52.55;;;4.70;99.90;;;;;;5004740;28;20046;-72
2022/01/25 01:03:44;;;;;;;;;;;4.70;99.90;;;;;;5005427;28;20050;-69
2022/01/25 01:06:09;;;;;;;70.35;53.28;;;4.70;99.90;;;;;;5003061;28;20348;-72
2022/01/25 01:08:35;;;;;;;71.00;54.50;;;4.70;99.90;;;;;;5003950;28;20050;-72
2022/01/25 01:11:04;;;;;;;70.07;55.70;;;4.70;99.90;;;;;;5005250;28;20038;-72
2022/01/25 01:16:41;;;;;;;72.03;54.80;;;4.70;99.90;;;;;;5003657;28;20428;-72
2022/01/25 01:30:15;;;;;;;71.50;54.25;;;4.60;99.90;;;;;;5007137;28;20054;-72
2022/01/25 01:47:51;;;;;;;76.05;56.35;;;4.60;99.90;;;;;;5002476;28;20050;-72
2022/01/25 01:50:29;;;;;;;73.60;55.40;;;4.60;99.90;;;;;;5004310;28;20049;-72
2022/01/25 01:52:56;;;;;;;74.25;55.08;;;4.60;99.90;;;;;;5007596;28;20081;-72
2022/01/25 01:55:22;;;;;;;70.73;54.00;;;4.60;99.90;;;;;;5007841;28;20042;-72
2022/01/25 01:57:49;;;;;;;74.75;55.10;;;4.60;99.90;;;;;;5004998;28;20305;-72
2022/01/25 02:00:17;;;;;;;72.00;55.80;;;4.60;99.90;;;;;;5005695;28;20125;-72
2022/01/25 02:02:43;;;;;;;73.45;55.67;;;4.60;99.90;;;;;;4993757;28;20034;-72
2022/01/25 02:05:08;;;;;;;74.22;54.25;;;4.60;99.90;;;;;;5007772;28;20037;-72
2022/01/25 02:07:34;;;;;;;75.25;55.97;;;4.60;99.90;;;;;;5006551;28;20128;-71
2022/01/25 02:10:00;;;;;;;78.85;55.90;;;4.60;99.90;;;;;;5007026;28;20501;-72
2022/01/25 02:12:27;;;;;;;74.13;55.90;;;4.60;99.90;;;;;;5007824;28;20382;-72
2022/01/25 02:14:54;;;;;;;75.55;55.70;;;4.60;99.90;;;;;;5002651;28;20044;-72
2022/01/25 02:22:53;;;;;;;78.28;57.28;;;4.60;99.90;;;;;;5005565;28;19925;-72
2022/01/25 02:25:19;;;;;;;75.50;56.58;;;4.60;99.90;;;;;;5006867;28;20451;-72
2022/01/25 02:27:45;;;;;;;74.38;57.22;;;4.60;99.90;;;;;;5006893;28;20046;-72
2022/01/25 02:30:11;;;;;;;76.63;55.70;;;4.60;99.90;;;;;;5006420;28;20053;-72
2022/01/25 02:32:36;;;;;;;75.22;56.40;;;4.60;99.90;;;;;;5006641;28;20100;-72
2022/01/25 02:35:02;;;;;;;73.45;57.10;;;4.60;99.90;;;;;;5006376;28;20658;-72
2022/01/25 02:37:29;;;;;;;74.32;56.00;;;4.60;99.90;;;;;;5007102;28;20140;-72
2022/01/25 02:39:54;;;;;;;75.72;56.10;;;4.60;99.90;;;;;;5008593;28;20038;-72
2022/01/25 02:42:20;;;;;;;73.82;55.05;;;4.60;99.90;;;;;;5006969;28;20061;-72
2022/01/25 02:44:47;;;;;;;73.05;53.88;;;4.60;99.90;;;;;;5007358;28;20046;-73
2022/01/25 02:49:58;;;;;;;75.60;54.85;;;4.60;99.90;;;;;;5001304;28;20092;-72
2022/01/25 02:52:24;;;;;;;78.13;57.00;;;4.60;99.90;;;;;;5008508;28;20041;-72
2022/01/25 02:54:50;;;;;;;76.00;54.55;;;4.60;99.90;;;;;;5005892;28;20053;-72
2022/01/25 02:57:15;;;;;;;74.93;55.58;;;4.60;99.90;;;;;;5008825;28;20050;-72
2022/01/25 02:59:41;;;;;;;73.13;53.92;;;4.60;99.90;;;;;;5015934;28;20076;-71
2022/01/25 03:02:06;;;;;;;72.78;55.05;;;4.50;99.90;;;;;;5009551;28;20054;-72
2022/01/25 03:04:32;;;;;;;75.88;56.50;;;4.50;99.90;;;;;;5007178;28;20121;-71
2022/01/25 03:06:58;;;;;;;77.50;55.05;;;4.50;99.90;;;;;;5006485;28;20053;-72
2022/01/25 03:09:24;;;;;;;77.75;55.88;;;4.60;99.90;;;;;;5007482;28;20426;-72
2022/01/25 03:11:52;;;;;;;73.72;54.65;;;4.50;99.90;;;;;;5006589;28;20046;-72
2022/01/25 03:14:21;;;;;;;76.00;54.58;;;4.50;99.90;;;;;;5001510;28;20078;-72
2022/01/25 03:17:04;;;;;;;78.43;56.45;;;4.50;99.90;;;;;;5007690;28;20501;-72
2022/01/25 03:21:59;;;;;;;75.70;55.65;;;4.50;99.90;;;;;;5005799;28;20449;-73
2022/01/25 03:24:25;;;;;;;76.47;55.22;;;4.50;99.90;;;;;;5008037;28;20053;-72
2022/01/25 03:26:51;;;;;;;75.97;55.17;;;4.50;99.90;;;;;;5005976;28;20537;-72
2022/01/25 03:29:17;;;;;;;78.03;56.58;;;4.50;99.90;;;;;;5009789;28;20044;-72
2022/01/25 03:31:43;;;;;;;73.05;54.97;;;4.50;99.90;;;;;;5004304;28;20057;-72
2022/01/25 03:34:09;;;;;;;74.65;53.65;;;4.50;99.90;;;;;;5007706;28;20128;-72
2022/01/25 03:36:35;;;;;;;74.78;53.97;;;4.50;99.90;;;;;;5007578;28;20042;-72
2022/01/25 03:39:01;;;;;;;73.65;54.25;;;4.50;99.90;;;;;;5009919;28;20492;-72
2022/01/25 03:41:27;;;;;;;72.35;53.53;;;4.50;99.90;;;;;;5005809;28;20405;-72
2022/01/25 03:43:56;;;;;;;74.47;54.58;;;4.50;99.90;;;;;;5007573;28;20049;-72
2022/01/25 03:46:41;;;;;;;75.70;54.75;;;4.50;99.90;;;;;;5006176;28;20121;-72
2022/01/25 03:51:52;;;;;;;73.15;53.85;;;4.50;99.90;;;;;;5006899;28;20046;-72
2022/01/25 03:54:18;;;;;;;76.03;54.80;;;4.50;99.90;;;;;;5006002;28;20128;-72
2022/01/25 03:56:45;;;;;;;79.15;55.85;;;4.50;99.90;;;;;;5006655;28;20045;-72
2022/01/25 03:59:11;;;;;;;75.15;56.75;;;4.50;99.90;;;;;;5008256;28;20049;-72
2022/01/25 04:01:37;;;;;;;74.55;54.78;;;4.50;99.90;;;;;;5006134;28;20553;-72
2022/01/25 04:04:08;;;;;;;72.47;52.80;;;4.50;99.90;;;;;;5008097;28;20132;-72
2022/01/25 04:06:36;;;;;;;75.63;55.15;;;4.50;99.90;;;;;;5006164;28;20064;-72
2022/01/25 04:09:05;;;;;;;75.97;55.72;;;4.50;99.90;;;;;;5005463;28;20160;-72
2022/01/25 04:11:31;;;;;;;73.00;52.72;;;4.50;99.90;;;;;;5007946;28;20045;-72
2022/01/25 04:13:58;;;;;;;73.97;54.35;;;4.50;99.90;;;;;;5006910;28;20049;-72
2022/01/25 04:16:32;;;;;;;73.90;53.42;;;4.50;99.90;;;;;;5007076;28;20050;-72
2022/01/25 04:19:11;;;;;;;79.15;55.60;;;4.50;99.90;;;;;;5006549;28;20042;-72
2022/01/25 04:26:51;;;;;;;;;;;4.40;99.90;;;;;;5005814;28;20058;-72
2022/01/25 04:29:17;;;;;;;75.53;52.95;;;4.40;99.90;;;;;;5006076;28;19965;-72
2022/01/25 04:31:43;;;;;;;75.25;53.50;;;4.40;99.90;;;;;;5006973;28;20041;-72
2022/01/25 04:50:41;;;;;;;75.68;54.47;;;4.40;99.90;;;;;;5000600;28;20429;-72
2022/01/25 04:53:18;;;;;;;75.07;53.65;;;4.40;99.90;;;;;;4999121;28;20050;-72
2022/01/25 04:55:55;;;;;;;74.20;52.85;;;4.40;99.90;;;;;;5003441;28;20049;-72
2022/01/25 04:58:29;;;;;;;75.20;53.40;;;4.40;99.90;;;;;;5008295;28;20047;-72
2022/01/25 05:00:55;;;;;;;76.40;53.85;;;4.50;99.90;;;;;;5010537;28;20050;-71
2022/01/25 05:03:26;;;;;;;76.68;54.00;;;4.50;99.90;;;;;;5007301;28;20104;-72
2022/01/25 05:06:05;;;;;;;77.40;52.75;;;4.50;99.90;;;;;;5009308;28;20038;-72
2022/01/25 05:11:07;;;;;;;80.10;52.25;;;4.50;99.90;;;;;;5009858;28;20605;-72
2022/01/25 05:16:06;;;;;;;72.15;50.80;;;4.50;99.90;;;;;;5009892;28;20137;-72
2022/01/25 05:18:49;;;;;;;72.57;50.47;;;4.50;99.90;;;;;;5008777;28;20056;-72
2022/01/25 05:23:59;;;;;;;75.85;51.88;;;4.50;99.90;;;;;;5007578;28;20111;-72
2022/01/25 05:26:26;;;;;;;74.13;50.90;;;4.50;99.90;;;;;;5010453;28;20124;-72
2022/01/25 05:28:52;;;;;;;74.55;51.50;;;4.50;99.90;;;;;;5010124;28;20042;-72
2022/01/25 05:31:18;;;;;;;78.97;51.60;;;4.50;99.90;;;;;;4991576;28;20049;-72
2022/01/25 05:33:44;;;;;;;75.70;51.95;;;4.50;99.90;;;;;;5009605;28;20316;-72
2022/01/25 05:36:10;;;;;;;72.85;51.30;;;4.50;99.90;;;;;;5009221;28;20176;-72
2022/01/25 05:38:36;;;;;;;74.22;51.22;;;4.50;99.90;;;;;;5009918;28;20528;-72
2022/01/25 05:41:03;;;;;;;71.95;50.28;;;4.50;99.90;;;;;;5009862;28;20034;-71
2022/01/25 05:46:18;;;;;;;73.10;51.78;;;4.50;99.90;;;;;;5008675;28;20053;-72
2022/01/25 05:48:47;;;;;;;73.75;52.00;;;4.40;99.90;;;;;;5015455;28;20042;-72
2022/01/25 05:51:13;;;;;;;74.80;51.65;;;4.40;99.90;;;;;;4984978;28;20053;-72
2022/01/25 05:53:42;;;;;;;75.05;51.95;;;4.50;99.90;;;;;;4988952;28;20082;-72
2022/01/25 05:56:08;;;;;;;73.63;51.13;;;4.50;99.90;;;;;;5010647;28;20046;-72
2022/01/25 05:58:34;;;;;;;72.13;50.50;;;4.40;99.90;;;;;;5006400;28;20049;-72
2022/01/25 06:00:59;;;;;;;75.20;51.83;;;4.50;99.90;;;;;;4992029;28;20046;-72
2022/01/25 06:03:25;;;;;;;75.05;51.75;;;4.50;99.90;;;;;;5009907;28;20056;-72
2022/01/25 06:05:51;;;;;;;74.45;51.35;;;4.50;99.90;;;;;;5008989;28;20801;-72
2022/01/25 06:08:16;;;;;;;74.95;50.85;;;4.40;99.90;;;;;;4993388;28;20092;-72
2022/01/25 06:10:42;;;;;;;76.95;50.25;;;4.40;99.90;;;;;;4990177;28;20042;-72
2022/01/25 06:13:07;;;;;;;75.80;51.38;;;4.40;99.90;;;;;;5010191;28;20048;-72
2022/01/25 06:15:33;;;;;;;75.20;50.88;;;4.40;99.90;;;;;;5007807;28;20049;-72
2022/01/25 06:17:59;;;;;;;78.07;51.83;;;4.40;99.90;;;;;;4990435;28;20046;-72
2022/01/25 06:20:25;;;;;;;74.82;50.90;;;4.40;99.90;;;;;;5010801;28;20466;-72
2022/01/25 06:22:50;;;;;;;74.65;50.80;;;4.40;99.90;;;;;;5002338;28;20056;-72
2022/01/25 06:25:16;;;;;;;73.22;48.70;;;4.40;99.90;;;;;;5009387;28;20486;-72
2022/01/25 06:27:43;;;;;;;76.32;51.65;;;4.40;99.90;;;;;;5008114;28;20050;-72
2022/01/25 06:30:12;;;;;;;75.15;52.10;;;4.40;99.90;;;;;;5009492;28;20042;-72
2022/01/25 06:32:38;;;;;;;76.47;50.50;;;4.40;99.90;;;;;;5006334;28;20046;-72
2022/01/25 06:35:06;;;;;;;76.20;49.90;;;4.40;99.90;;;;;;5007632;28;20464;-72
2022/01/25 06:37:32;;;;;;;77.50;51.35;;;4.40;99.90;;;;;;5009118;28;20049;-71
2022/01/25 06:39:58;;;;;;;74.75;50.05;;;4.40;99.90;;;;;;5010719;28;20037;-74
2022/01/25 06:42:28;;;;;;;76.13;51.88;;;4.40;99.90;;;;;;5003666;28;20444;-72
2022/01/25 06:44:56;;;;;;;74.63;50.30;;;4.40;99.90;;;;;;4998594;28;20658;-72
2022/01/25 06:47:22;;;;;;;75.75;51.88;;;4.40;99.90;;;;;;5007778;28;20162;-73
2022/01/25 06:49:48;;;;;;;77.55;51.97;;;4.40;99.90;;;;;;5005004;28;20037;-73
2022/01/25 06:52:13;;;;;;;76.57;49.78;;;4.40;99.90;;;;;;5007457;28;20470;-72
2022/01/25 06:54:39;;;;;;;73.57;49.85;;;4.40;99.90;;;;;;4999554;28;20069;-73
2022/01/25 06:57:05;;;;;;;73.70;51.53;;;4.40;99.90;;;;;;5006952;28;20097;-73
2022/01/25 06:59:31;;;;;;;78.68;51.58;;;4.40;99.90;;;;;;5006807;28;20052;-72
2022/01/25 07:01:56;;;;;;;75.82;50.85;;;4.40;99.90;;;;;;5005353;28;20038;-72
2022/01/25 07:04:22;;;;;;;74.63;49.33;;;4.40;99.90;;;;;;5005766;28;20141;-72
2022/01/25 07:06:47;;;;;;;74.93;50.95;;;4.40;99.90;;;;;;5007072;28;20505;-73
2022/01/25 07:09:13;;;;;;;80.50;52.00;;;4.40;99.90;;;;;;5006672;28;20045;-73
2022/01/25 07:11:38;;;;;;;76.22;50.42;;;4.50;99.90;;;;;;5004957;28;20144;-73
2022/01/25 07:14:04;;;;;;;79.80;52.10;;;4.40;99.90;;;;;;5008421;28;20041;-73
2022/01/25 07:16:30;;;;;;;72.53;50.10;;;4.40;99.90;;;;;;5006982;28;20041;-72
2022/01/25 07:18:56;;;;;;;75.20;51.78;;;4.50;99.90;;;;;;5003979;28;20049;-72
2022/01/25 07:21:21;;;;;;;77.05;50.85;;;4.50;99.90;;;;;;5005747;28;20057;-72
2022/01/25 07:23:47;;;;;;;74.68;52.28;;;4.50;99.90;;;;;;5006062;28;20510;-72
2022/01/25 07:26:13;;;;;;;75.78;50.80;;;4.50;99.90;;;;;;5007624;28;20474;-72
2022/01/25 07:28:38;;;;;;;79.22;51.33;;;4.50;99.90;;;;;;5007647;28;20054;-72
2022/01/25 07:31:04;;;;;;;75.13;51.08;;;4.40;99.90;;;;;;5002454;28;20459;-72
2022/01/25 07:33:30;;;;;;;74.30;50.75;;;4.50;99.90;;;;;;5000619;28;20596;-73
2022/01/25 07:35:56;;;;;;;78.65;51.85;;;4.50;99.90;;;;;;5006244;28;20038;-73
2022/01/25 07:38:22;;;;;;;75.60;50.95;;;4.50;99.90;;;;;;5002147;28;20405;-73
2022/01/25 07:40:48;;;;;;;75.30;49.50;;;4.50;99.90;;;;;;5005496;28;20100;-73
2022/01/25 07:43:14;;;;;;;72.82;50.17;;;4.50;99.90;;;;;;5007087;28;20243;-72
2022/01/25 07:45:41;;;;;;;77.47;51.10;;;4.50;99.90;;;;;;5004395;28;20504;-72
2022/01/25 07:48:08;;;;;;;;;;;4.50;99.90;;;;;;5006137;28;20055;-72
2022/01/25 07:50:35;;;;;;;76.78;50.63;;;4.50;99.90;;;;;;5005182;28;19925;-72
2022/01/25 07:53:00;;;;;;;79.40;51.53;;;4.50;99.90;;;;;;5005939;28;20651;-72
2022/01/25 07:55:26;;;;;;;75.90;50.30;;;4.50;99.90;;;;;;5005636;28;20113;-72
2022/01/25 07:57:52;;;;;;;75.38;50.45;;;4.50;99.90;;;;;;5020952;28;20096;-73
2022/01/25 08:00:19;;;;;;;75.25;50.75;;;4.50;99.90;;;;;;5006546;28;20048;-73
2022/01/25 08:02:46;;;;;;;76.40;50.20;;;4.50;99.90;;;;;;5007131;28;20054;-73
2022/01/25 08:05:13;;;;;;;78.45;51.33;;;4.50;99.90;;;;;;5005271;28;20038;-72
2022/01/25 08:07:39;;;;;;;78.30;51.55;;;4.50;99.90;;;;;;5006291;28;20382;-72
2022/01/25 08:10:05;;;;;;;78.15;52.47;;;4.50;99.90;;;;;;5006842;28;20187;-72
2022/01/25 08:12:30;;;;;;;76.28;50.75;;;4.50;99.90;;;;;;5005914;28;20073;-72
2022/01/25 08:14:58;;;;;;;78.53;51.75;;;4.50;99.90;;;;;;5005771;28;20049;-73
2022/01/25 08:17:24;;;;;;;;;;;4.50;99.90;;;;;;5008226;28;20057;-72
2022/01/25 08:19:49;;;;;;;79.82;50.58;;;4.50;99.90;;;;;;5004452;28;19921;-73
2022/01/25 08:22:15;;;;;;;74.53;48.83;;;4.50;99.90;;;;;;5000986;28;20073;-73
2022/01/25 08:24:40;;;;;;;78.55;51.13;;;4.50;99.90;;;;;;5008523;28;20072;-73
2022/01/25 08:27:06;;;;;;;78.40;50.65;;;4.50;99.90;;;;;;5004907;28;20050;-73
2022/01/25 08:29:32;;;;;;;79.88;49.78;;;4.50;99.90;;;;;;5011057;28;20045;-72
2022/01/25 08:31:57;;;;;;;76.50;50.13;;;4.60;99.90;;;;;;5005213;28;20096;-73
2022/01/25 08:34:23;;;;;;;77.90;51.35;;;4.50;99.90;;;;;;5008303;28;20077;-71
2022/01/25 08:36:49;;;;;;;75.60;50.90;;;4.60;99.90;;;;;;5006831;28;20404;-71
2022/01/25 08:39:14;;;;;;;74.82;48.45;;;4.50;99.90;;;;;;5013543;28;20489;-72
2022/01/25 08:41:40;;;;;;;75.35;49.17;;;4.60;99.90;;;;;;5007483;28;20481;-73
2022/01/25 08:44:06;;;;;;;75.97;51.38;;;4.50;99.90;;;;;;5011253;28;20073;-73
2022/01/25 08:46:32;;;;;;;78.18;50.35;;;4.60;99.90;;;;;;5010397;28;20045;-72
2022/01/25 08:48:59;;;;;;;78.10;50.67;;;4.60;99.90;;;;;;5011678;28;20049;-72
2022/01/25 08:51:24;;;;;;;75.35;49.42;;;4.60;99.90;;;;;;5012408;28;20082;-73
2022/01/25 08:53:50;;;;;;;75.90;50.88;;;4.60;99.90;;;;;;5010946;28;20052;-72
2022/01/25 08:56:16;;;;;;;73.93;48.60;;;4.60;99.90;;;;;;5011234;28;20063;-71
2022/01/25 08:58:42;;;;;;;75.63;49.20;;;4.60;99.90;;;;;;5011209;28;20124;-70
2022/01/25 09:01:08;;;;;;;76.32;48.83;;;4.60;99.90;;;;;;5011397;28;20052;-71
2022/01/25 09:03:34;;;;;;;75.53;49.75;;;4.60;99.90;;;;;;5006995;28;20092;-72
2022/01/25 09:05:59;;;;;;;76.40;50.50;;;4.60;99.90;;;;;;5025447;28;20051;-73
2022/01/25 09:08:27;;;;;;;77.97;50.10;;;4.60;99.90;;;;;;5011952;28;20129;-72
2022/01/25 09:10:58;;;;;;;74.25;48.55;;;4.60;99.90;;;;;;5010065;28;20511;-72
2022/01/25 09:13:25;;;;;;;76.95;50.85;;;4.60;99.90;;;;;;5011623;28;20104;-72
2022/01/25 09:15:50;;;;;;;77.38;49.15;;;4.60;99.90;;;;;;5008896;28;20049;-75
2022/01/25 09:18:17;;;;;;;77.45;51.55;;;4.60;99.90;;;;;;5011348;28;20046;-72
2022/01/25 09:20:42;;;;;;;75.97;49.53;;;4.60;99.90;;;;;;5010854;28;20042;-71
2022/01/25 09:23:08;;;;;;;76.43;50.63;;;4.60;99.90;;;;;;5012420;28;20060;-71
2022/01/25 09:25:34;;;;;;;75.85;50.45;;;4.60;99.90;;;;;;5010510;28;20037;-72
2022/01/25 09:28:01;;;;;;;78.95;52.15;;;4.60;99.90;;;;;;5009933;28;20046;-72
2022/01/25 09:30:27;;;;;;;77.57;50.70;;;4.70;99.90;;;;;;5011030;28;20742;-72
2022/01/25 09:32:53;;;;;;;83.15;50.63;;;4.60;99.90;;;;;;5011160;28;20095;-72
2022/01/25 09:35:18;;;;;;;79.40;51.42;;;4.70;99.90;;;;;;5011671;28;20038;-72
2022/01/25 09:37:46;;;;;;;80.70;51.97;;;4.70;99.90;;;;;;5010579;28;20037;-72
2022/01/25 09:40:14;;;;;;;76.15;50.75;;;4.70;99.90;;;;;;5011199;28;20088;-71
2022/01/25 09:42:40;;;;;;;77.97;51.28;;;4.70;99.90;;;;;;5010886;28;20140;-72
2022/01/25 09:45:07;;;;;;;78.97;50.35;;;4.60;99.90;;;;;;5008609;28;20041;-71
2022/01/25 09:47:33;;;;;;;77.45;49.83;;;4.60;99.90;;;;;;5010915;28;20103;-72
2022/01/25 09:49:58;;;;;;;76.72;50.10;;;4.60;99.90;;;;;;5009731;28;20436;-72
2022/01/25 09:52:25;;;;;;;77.20;49.10;;;4.60;99.90;;;;;;5008758;28;20053;-72
2022/01/25 09:54:58;;;;;;;76.20;49.70;;;4.60;99.90;;;;;;5009361;28;20030;-72
2022/01/25 09:57:24;;;;;;;77.75;50.03;;;4.60;99.90;;;;;;5010599;28;20057;-72
2022/01/25 09:59:51;;;;;;;77.18;50.45;;;4.60;99.90;;;;;;5009604;28;20060;-71
2022/01/25 10:02:35;;;;;;;80.47;51.90;;;4.70;99.90;;;;;;5009626;28;20058;-72
2022/01/25 10:05:28;;;;;;;78.70;49.22;;;4.70;99.90;;;;;;5010514;28;20034;-73
2022/01/25 10:08:11;;;;;;;78.82;50.33;;;4.70;99.90;;;;;;5007654;28;20077;-71
2022/01/25 10:11:01;;;;;;;75.65;49.95;;;4.70;99.90;;;;;;5009244;28;20169;-70
2022/01/25 10:13:36;;;;;;;78.28;50.42;;;4.70;99.90;;;;;;5010060;28;20041;-70
2022/01/25 10:16:07;;;;;;;74.72;49.28;;;4.70;99.90;;;;;;5010794;28;20060;-71
2022/01/25 10:18:56;;;;;;;80.47;51.72;;;4.70;99.90;;;;;;5014008;28;20484;-70
2022/01/25 10:21:24;;;;;;;77.07;50.78;;;4.80;99.90;;;;;;4999899;28;20409;-70
2022/01/25 10:24:05;;;;;;;75.90;49.70;;;4.70;99.90;;;;;;5010462;28;20056;-71
2022/01/25 10:26:48;;;;;;;80.30;49.30;;;4.80;99.90;;;;;;5009758;28;20454;-71
2022/01/25 10:29:16;;;;;;;75.32;47.55;;;4.70;99.90;;;;;;5010869;28;20497;-71
2022/01/25 10:31:51;;;;;;;77.70;49.28;;;4.80;99.90;;;;;;5007840;28;20701;-71
2022/01/25 10:34:23;;;;;;;73.75;47.58;;;4.80;99.90;;;;;;5008313;28;20058;-72
2022/01/25 10:36:49;;;;;;;77.13;48.78;;;4.80;99.90;;;;;;5009768;28;20508;-72
2022/01/25 10:39:33;;;;;;;74.70;48.60;;;4.80;99.90;;;;;;5009670;28;20485;-72
2022/01/25 10:42:07;;;;;;;75.55;49.28;;;4.80;99.90;;;;;;5008011;28;20053;-72
2022/01/25 10:44:46;;;;;;;79.38;50.92;;;4.80;99.90;;;;;;5002514;28;20050;-72
2022/01/25 10:47:12;;;;;;;81.15;49.78;;;4.80;99.90;;;;;;5008920;28;20058;-72
2022/01/25 10:49:48;;;;;;;78.60;50.75;;;4.80;99.90;;;;;;5008459;28;20433;-71
2022/01/25 10:52:23;;;;;;;78.38;51.28;;;4.80;99.90;;;;;;5009823;28;20052;-71
2022/01/25 10:54:48;;;;;;;76.13;49.42;;;4.80;99.90;;;;;;5007048;28;20042;-72
2022/01/25 10:57:20;;;;;;;72.72;47.35;;;4.80;99.90;;;;;;5007693;28;20252;-72
2022/01/25 10:59:58;;;;;;;74.35;48.45;;;4.80;99.90;;;;;;5009648;28;20461;-72
2022/01/25 11:02:23;;;;;;;83.05;50.65;;;4.80;99.90;;;;;;5007939;28;20045;-72
2022/01/25 11:04:49;;;;;;;76.93;49.35;;;4.80;99.90;;;;;;5007897;28;20053;-72
2022/01/25 11:07:15;;;;;;;74.78;49.45;;;4.80;99.90;;;;;;5010526;28;20045;-72
2022/01/25 11:09:45;;;;;;;75.93;49.03;;;4.80;99.90;;;;;;5006942;28;20050;-71
2022/01/25 11:12:15;;;;;;;79.50;49.88;;;4.90;99.90;;;;;;4990154;28;20482;-71
2022/01/25 11:14:56;;;;;;;78.05;48.47;;;4.90;99.90;;;;;;5006579;28;20061;-71
2022/01/25 11:17:31;;;;;;;77.10;49.05;;;4.90;99.90;;;;;;5104487;27;20392;-72
2022/01/25 11:19:58;;;;;;;76.95;48.03;;;4.90;99.90;;;;;;5114499;28;20044;-72
2022/01/25 11:22:25;;;;;;;77.97;49.00;;;4.90;99.90;;;;;;5085078;28;20055;-72
2022/01/25 11:24:56;;;;;;;70.05;46.40;;;4.90;99.90;;;;;;5088957;28;20285;-71
2022/01/25 11:27:26;;;;;;;75.00;47.42;;;4.90;99.90;;;;;;5115714;28;20079;-70
2022/01/25 11:29:55;;;;;;;72.05;44.78;;;5.00;99.90;;;;;;5079222;28;20072;-70
2022/01/25 11:32:25;;;;;;;70.40;46.30;;;5.00;99.90;;;;;;5072987;28;20139;-71
2022/01/25 11:34:52;;;;;;;75.25;47.58;;;4.90;99.90;;;;;;5087256;28;20079;-71
2022/01/25 11:37:18;;;;;;;75.00;46.45;;;4.90;99.90;;;;;;5090290;28;20071;-72
2022/01/25 11:39:47;;;;;;;74.50;46.17;;;4.90;99.90;;;;;;5071112;28;20052;-71
2022/01/25 11:42:18;;;;;;;71.03;46.15;;;4.90;99.90;;;;;;5067557;28;20037;-71
2022/01/25 11:44:53;;;;;;;74.38;48.45;;;4.90;99.90;;;;;;5079299;28;20061;-71
2022/01/25 11:47:29;;;;;;;73.55;46.58;;;4.90;99.90;;;;;;5092476;28;20045;-70
2022/01/25 11:50:01;;;;;;;70.85;46.45;;;4.90;99.90;;;;;;5079355;28;20376;-71
2022/01/25 11:52:29;;;;;;;76.80;47.42;;;4.90;99.90;;;;;;5083501;28;20055;-71
2022/01/25 11:55:20;;;;;;;75.18;47.45;;;4.90;99.90;;;;;;5099832;28;20040;-72
2022/01/25 11:57:48;;;;;;;76.38;46.45;;;4.90;99.90;;;;;;5098869;28;20044;-72
2022/01/25 12:00:14;;;;;;;73.63;47.35;;;4.90;99.90;;;;;;5082260;28;20055;-72
2022/01/25 12:02:51;;;;;;;77.50;48.03;;;5.00;99.90;;;;;;5082623;28;20048;-72
2022/01/25 12:05:26;;;;;;;72.70;46.15;;;5.00;99.90;;;;;;5082977;28;20055;-71
2022/01/25 12:08:16;;;;;;;76.82;46.60;;;5.00;99.90;;;;;;5084059;28;20044;-71
2022/01/25 12:10:45;;;;;;;75.57;46.13;;;5.00;99.90;;;;;;5080606;28;20058;-72
2022/01/25 12:13:29;;;;;;;77.45;46.92;;;4.90;99.90;;;;;;5080553;28;20571;-69
2022/01/25 12:16:24;;;;;;;71.75;45.45;;;5.00;99.90;;;;;;5073705;28;20095;-69
2022/01/25 12:18:54;;;;;;;72.15;45.53;;;5.00;99.90;;;;;;5063367;28;20053;-68
2022/01/25 12:21:44;;;;;;;78.22;48.00;;;5.00;99.90;;;;;;5082167;28;20052;-70
2022/01/25 12:24:53;;;;;;;78.93;47.55;;;5.00;99.90;;;;;;5081167;28;20103;-71
2022/01/25 12:27:35;;;;;;;75.18;47.03;;;5.00;99.90;;;;;;5070659;28;20063;-70
2022/01/25 12:30:27;;;;;;;74.82;46.92;;;5.00;99.90;;;;;;5067946;28;20049;-71
2022/01/25 12:33:03;;;;;;;78.95;48.95;;;5.00;99.90;;;;;;5067830;28;20048;-71
2022/01/25 12:35:33;;;;;;;72.47;46.15;;;5.00;99.90;;;;;;5091807;28;20090;-71
2022/01/25 12:38:02;;;;;;;71.40;45.95;;;5.00;99.90;;;;;;5068468;28;20076;-71
2022/01/25 12:40:32;;;;;;;72.25;45.80;;;5.00;99.90;;;;;;5060839;28;20084;-70
2022/01/25 12:43:05;;;;;;;73.18;45.63;;;5.00;99.90;;;;;;5082868;28;20068;-70
2022/01/25 12:45:38;;;;;;;73.50;45.92;;;4.90;99.90;;;;;;5079657;28;20541;-71
2022/01/25 12:48:07;;;;;;;79.20;50.10;;;5.00;99.90;;;;;;5068522;28;20400;-70
2022/01/25 12:50:36;;;;;;;77.57;45.90;;;4.90;99.90;;;;;;5068524;28;20106;-71
2022/01/25 12:53:03;;;;;;;73.43;45.42;;;4.90;99.90;;;;;;5068532;28;20467;-70
2022/01/25 12:55:40;;;;;;;77.57;47.05;;;4.90;99.90;;;;;;5063212;28;20094;-71
2022/01/25 12:58:06;;;;;;;72.07;45.90;;;4.90;99.90;;;;;;5080001;28;20087;-72
2022/01/25 13:00:54;;;;;;;73.17;45.60;;;4.90;99.90;;;;;;5067542;28;20080;-71
2022/01/25 13:03:29;;;;;;;75.28;45.92;;;4.90;99.90;;;;;;5057222;28;20059;-72
2022/01/25 13:05:56;;;;;;;74.30;45.33;;;4.80;99.90;;;;;;5068992;28;20048;-71
2022/01/25 13:08:35;;;;;;;78.15;46.97;;;4.90;99.90;;;;;;5079114;28;20040;-71
2022/01/25 13:11:30;;;;;;;77.15;46.08;;;4.90;99.90;;;;;;5067235;28;20132;-71
2022/01/25 13:14:04;;;;;;;76.43;45.08;;;4.90;99.90;;;;;;5070134;28;20384;-72
2022/01/25 13:16:43;;;;;;;73.95;46.30;;;4.90;99.90;;;;;;5066296;28;20060;-71
2022/01/25 13:19:10;;;;;;;73.55;45.35;;;4.90;99.90;;;;;;5072631;28;20047;-71
2022/01/25 13:21:38;;;;;;;74.05;44.92;;;4.80;99.90;;;;;;5068918;28;20426;-72
2022/01/25 13:24:08;;;;;;;71.43;43.97;;;4.80;99.90;;;;;;5068427;28;20186;-72
2022/01/25 13:26:38;;;;;;;74.90;44.88;;;4.80;99.90;;;;;;5067758;28;20051;-71
2022/01/25 13:30:39;;;;;;;77.97;46.53;;;4.80;99.90;;;;;;5067506;28;20051;-71
2022/01/25 13:32:43;;;;;;;73.93;43.83;;;4.80;99.90;;;;;;5075172;28;20056;-71
2022/01/25 13:35:18;;;;;;;71.88;43.50;;;4.80;99.90;;;;;;5065713;28;20492;-71
2022/01/25 13:37:59;;;;;;;70.57;46.25;;;4.80;99.90;;;;;;5067748;28;20135;-71
2022/01/25 13:40:33;;;;;;;71.85;45.05;;;4.70;99.90;;;;;;5063145;28;20056;-70
2022/01/25 13:43:19;;;;;;;77.65;46.05;;;4.70;99.90;;;;;;5069432;28;20080;-71
2022/01/25 13:45:50;;;;;;;77.20;45.40;;;4.80;99.90;;;;;;5092611;28;20098;-72
2022/01/25 13:48:15;;;;;;;72.90;44.97;;;4.80;99.90;;;;;;5067158;28;20064;-70
2022/01/25 13:50:41;;;;;;;72.28;43.42;;;4.70;99.90;;;;;;5066313;28;20102;-71
2022/01/25 13:53:08;;;;;;;76.80;44.25;;;4.80;99.90;;;;;;5067881;28;20441;-71
2022/01/25 13:55:36;;;;;;;75.13;45.00;;;4.80;99.90;;;;;;5099884;28;20044;-71
2022/01/25 13:58:14;;;;;;;72.00;42.22;;;4.70;99.90;;;;;;5067608;28;20059;-71
2022/01/25 14:00:40;;;;;;;68.28;42.90;;;4.80;99.90;;;;;;5069227;28;20447;-71
2022/01/25 14:03:05;;;;;;;72.90;44.38;;;4.70;99.90;;;;;;5069190;28;20044;-71
2022/01/25 14:05:35;;;;;;;75.65;45.05;;;4.70;99.90;;;;;;5066800;28;20113;-72
2022/01/25 14:08:01;;;;;;;68.90;42.90;;;4.70;99.90;;;;;;5067369;28;20052;-71
2022/01/25 14:10:28;;;;;;;70.13;43.58;;;4.70;99.90;;;;;;5068002;28;20143;-71
2022/01/25 14:23:55;;;;;;;75.18;46.33;;;4.70;99.90;;;;;;5066605;28;20080;-73
2022/01/25 14:26:27;;;;;;;76.47;45.58;;;4.70;99.90;;;;;;5066872;28;20059;-72
2022/01/25 14:28:57;;;;;;;68.85;42.55;;;4.70;99.90;;;;;;5065761;28;20044;-71
2022/01/25 14:31:25;;;;;;;73.13;44.00;;;4.80;99.90;;;;;;5069310;28;20119;-72
2022/01/25 14:33:55;;;;;;;72.43;43.17;;;4.80;99.90;;;;;;5065409;28;20251;-72
2022/01/25 14:36:22;;;;;;;72.47;44.10;;;4.80;99.90;;;;;;5066274;28;20036;-72
2022/01/25 14:38:48;;;;;;;69.68;44.20;;;4.80;99.90;;;;;;5078943;28;20056;-72
2022/01/25 14:41:19;;;;;;;78.45;44.58;;;4.80;99.90;;;;;;5080669;28;20473;-71
2022/01/25 14:43:53;;;;;;;74.20;44.88;;;4.80;99.90;;;;;;5061512;28;20045;-72
2022/01/25 14:46:35;;;;;;;73.03;43.53;;;4.80;99.90;;;;;;5067235;28;20123;-72
2022/01/25 14:49:07;;;;;;;76.53;44.33;;;4.80;99.90;;;;;;5077966;28;20119;-72